createdAt,value
2022-11-28T00:01:32.340Z,-17.48
2022-11-28T00:04:45.160Z,-17.51
2022-11-28T00:07:58.797Z,-17.48
2022-11-28T00:11:15.523Z,-17.77
2022-11-28T00:14:25.783Z,-17.83
2022-11-28T00:17:37.273Z,-18.03
2022-11-28T00:20:46.506Z,-18.17
2022-11-28T00:23:57.176Z,-18.17
2022-11-28T00:27:11.115Z,-18.15
2022-11-28T00:30:23.445Z,-18.36
2022-11-28T00:33:37.062Z,-18.31
2022-11-28T00:36:49.486Z,-18.26
2022-11-28T00:40:03.229Z,-18.13
2022-11-28T00:43:18.705Z,-18.15
2022-11-28T00:46:31.623Z,-18.10
2022-11-28T00:49:44.766Z,-18.14
2022-11-28T00:52:57.269Z,-18.13
2022-11-28T00:56:15.940Z,-17.98
2022-11-28T00:59:29.460Z,-17.91
2022-11-28T01:02:43.188Z,-17.89
2022-11-28T01:05:55.617Z,-17.93
2022-11-28T01:09:12.544Z,-17.87
2022-11-28T01:12:27.819Z,-17.82
2022-11-28T01:15:44.744Z,-17.72
2022-11-28T01:18:57.149Z,-17.70
2022-11-28T01:22:11.916Z,-17.76
2022-11-28T01:25:21.957Z,-17.82
2022-11-28T01:28:26.786Z,-17.93
2022-11-28T01:31:31.600Z,-17.86
2022-11-28T01:34:34.655Z,-17.72
2022-11-28T01:37:39.177Z,-17.83
2022-11-28T01:40:46.970Z,-17.66
2022-11-28T01:43:59.217Z,-17.66
2022-11-28T01:47:02.940Z,-17.59
2022-11-28T01:50:07.853Z,-17.42
2022-11-28T01:53:12.113Z,-17.24
2022-11-28T01:56:27.483Z,-17.30
2022-11-28T01:59:39.925Z,-17.39
2022-11-28T02:02:58.155Z,-17.32
2022-11-28T02:06:01.899Z,-17.38
2022-11-28T02:09:11.058Z,-17.56
2022-11-28T02:12:35.380Z,-17.54
2022-11-28T02:15:57.261Z,-17.41
2022-11-28T02:19:26.267Z,-17.44
2022-11-28T02:22:40.701Z,-17.38
2022-11-28T02:26:18.287Z,-17.56
2022-11-28T02:29:30.249Z,-17.69
2022-11-28T02:33:07.573Z,-17.79
2022-11-28T02:36:20.347Z,-17.75
2022-11-28T02:39:38.361Z,-17.49
2022-11-28T02:43:01.422Z,-17.45
2022-11-28T02:46:32.063Z,-17.41
2022-11-28T02:49:41.438Z,-17.37
2022-11-28T02:52:54.642Z,-17.38
2022-11-28T02:55:59.698Z,-17.42
2022-11-28T02:59:03.192Z,-17.38
2022-11-28T03:02:24.084Z,-17.30
2022-11-28T03:05:50.200Z,-17.27
2022-11-28T03:09:25.827Z,-17.09
2022-11-28T03:13:02.050Z,-17.00
2022-11-28T03:16:18.865Z,-16.92
2022-11-28T03:19:25.265Z,-16.99
2022-11-28T03:22:40.999Z,-17.13
2022-11-28T03:26:05.631Z,-17.17
2022-11-28T03:29:14.794Z,-17.14
2022-11-28T03:32:24.741Z,-16.93
2022-11-28T03:35:31.721Z,-16.80
2022-11-28T03:38:43.477Z,-16.73
2022-11-28T03:41:55.531Z,-16.76
2022-11-28T03:45:07.262Z,-16.92
2022-11-28T03:48:35.715Z,-16.73
2022-11-28T03:51:43.898Z,-16.85
2022-11-28T03:55:05.401Z,-17.04
2022-11-28T03:58:30.660Z,-16.89
2022-11-28T04:01:49.014Z,-17.00
2022-11-28T04:05:00.964Z,-16.92
2022-11-28T04:08:32.511Z,-17.18
2022-11-28T04:11:48.574Z,-17.09
2022-11-28T04:15:02.342Z,-16.90
2022-11-28T04:18:28.929Z,-17.30
2022-11-28T04:21:54.959Z,-17.30
2022-11-28T04:25:14.173Z,-17.32
2022-11-28T04:28:22.335Z,-17.11
2022-11-28T04:31:27.583Z,-16.97
2022-11-28T04:34:33.799Z,-17.06
2022-11-28T04:37:40.068Z,-17.10
2022-11-28T04:40:50.390Z,-16.85
2022-11-28T04:44:01.281Z,-16.79
2022-11-28T04:47:05.611Z,-16.65
2022-11-28T04:50:09.270Z,-16.42
2022-11-28T04:53:40.591Z,-16.41
2022-11-28T04:56:54.452Z,-16.59
2022-11-28T05:00:00.898Z,-16.63
2022-11-28T05:03:06.106Z,-16.31
2022-11-28T05:06:10.261Z,-16.30
2022-11-28T05:09:14.253Z,-16.27
2022-11-28T05:12:17.339Z,-16.55
2022-11-28T05:15:20.835Z,-16.56
2022-11-28T05:18:23.772Z,-16.68
2022-11-28T05:21:27.042Z,-16.48
2022-11-28T05:24:32.343Z,-16.62
2022-11-28T05:27:35.731Z,-16.56
2022-11-28T05:30:42.213Z,-16.44
2022-11-28T05:33:45.518Z,-16.37
2022-11-28T05:36:48.373Z,-16.48
2022-11-28T05:39:52.389Z,-16.49
2022-11-28T05:42:55.275Z,-16.68
2022-11-28T05:45:58.606Z,-16.52
2022-11-28T05:49:02.323Z,-16.66
2022-11-28T05:52:05.446Z,-16.49
2022-11-28T05:55:10.185Z,-16.38
2022-11-28T05:58:13.587Z,-16.34
2022-11-28T06:01:22.924Z,-16.12
2022-11-28T06:04:26.615Z,-16.21
2022-11-28T06:07:29.591Z,-16.49
2022-11-28T06:10:32.660Z,-16.55
2022-11-28T06:13:36.188Z,-16.35
2022-11-28T06:16:41.811Z,-16.24
2022-11-28T06:19:45.178Z,-16.03
2022-11-28T06:22:48.682Z,-16.06
2022-11-28T06:25:52.143Z,-15.99
2022-11-28T06:28:59.400Z,-16.27
2022-11-28T06:32:03.142Z,-16.37
2022-11-28T06:35:06.425Z,-16.37
2022-11-28T06:38:14.051Z,-16.52
2022-11-28T06:41:19.932Z,-16.53
2022-11-28T06:44:22.917Z,-16.83
2022-11-28T06:47:26.674Z,-16.82
2022-11-28T06:50:30.550Z,-16.80
2022-11-28T06:53:34.467Z,-16.88
2022-11-28T06:56:38.313Z,-16.93
2022-11-28T06:59:41.906Z,-17.07
2022-11-28T07:02:45.132Z,-17.17
2022-11-28T07:05:51.201Z,-17.28
2022-11-28T07:08:57.171Z,-17.21
2022-11-28T07:12:00.629Z,-17.09
2022-11-28T07:15:03.729Z,-17.09
2022-11-28T07:18:07.246Z,-17.13
2022-11-28T07:21:10.858Z,-17.07
2022-11-28T07:24:13.800Z,-17.11
2022-11-28T07:27:19.941Z,-17.10
2022-11-28T07:30:23.971Z,-17.17
2022-11-28T07:33:27.352Z,-17.24
2022-11-28T07:36:31.442Z,-17.27
2022-11-28T07:39:35.282Z,-17.26
2022-11-28T07:42:38.979Z,-17.26
2022-11-28T07:45:59.917Z,-17.38
2022-11-28T07:49:05.231Z,-17.39
2022-11-28T07:52:08.204Z,-17.38
2022-11-28T07:55:11.603Z,-17.41
2022-11-28T07:58:14.589Z,-17.42
2022-11-28T08:01:19.544Z,-17.49
2022-11-28T08:04:22.515Z,-17.58
2022-11-28T08:07:25.562Z,-17.67
2022-11-28T08:10:28.540Z,-17.67
2022-11-28T08:13:31.927Z,-17.67
2022-11-28T08:16:37.279Z,-17.69
2022-11-28T08:19:40.297Z,-17.69
2022-11-28T08:22:43.298Z,-17.61
2022-11-28T08:25:47.284Z,-17.56
2022-11-28T08:28:52.732Z,-17.58
2022-11-28T08:31:56.487Z,-17.61
2022-11-28T08:35:00.182Z,-17.51
2022-11-28T08:38:03.971Z,-17.63
2022-11-28T08:41:09.437Z,-17.51
2022-11-28T08:44:13.795Z,-17.58
2022-11-28T08:47:17.465Z,-17.69
2022-11-28T08:50:21.177Z,-17.72
2022-11-28T08:53:24.907Z,-17.79
2022-11-28T08:56:29.618Z,-17.89
2022-11-28T08:59:32.585Z,-17.90
2022-11-28T09:02:36.264Z,-18.01
2022-11-28T09:05:39.999Z,-18.06
2022-11-28T09:08:43.101Z,-18.11
2022-11-28T09:11:46.502Z,-18.21
2022-11-28T09:14:50.166Z,-18.25
2022-11-28T09:17:53.924Z,-18.29
2022-11-28T09:21:12.491Z,-18.46
2022-11-28T09:24:16.313Z,-18.56
2022-11-28T09:27:19.672Z,-18.59
2022-11-28T09:30:23.771Z,-18.77
2022-11-28T09:33:27.110Z,-18.84
2022-11-28T09:36:32.546Z,-18.95
2022-11-28T09:39:50.536Z,-19.02
2022-11-28T09:43:03.032Z,-19.10
2022-11-28T09:46:12.167Z,-19.14
2022-11-28T09:49:41.828Z,-19.21
2022-11-28T09:53:03.209Z,-19.40
2022-11-28T09:56:19.447Z,-19.52
2022-11-28T09:59:31.191Z,-19.58
2022-11-28T10:02:44.541Z,-19.67
2022-11-28T10:06:06.173Z,-19.70
2022-11-28T10:09:38.445Z,-19.69
2022-11-28T10:13:27.449Z,-19.67
2022-11-28T10:17:00.103Z,-19.67
2022-11-28T10:20:09.158Z,-19.69
2022-11-28T10:23:31.716Z,-19.77
2022-11-28T10:26:40.689Z,-19.83
2022-11-28T10:29:51.047Z,-19.88
2022-11-28T10:33:03.606Z,-19.83
2022-11-28T10:36:07.883Z,-19.77
2022-11-28T10:39:13.362Z,-19.86
2022-11-28T10:42:19.928Z,-19.90
2022-11-28T10:45:35.626Z,-19.93
2022-11-28T10:49:10.504Z,-19.96
2022-11-28T10:52:18.723Z,-20.01
2022-11-28T10:55:34.612Z,-20.05
2022-11-28T10:59:05.707Z,-20.02
2022-11-28T11:02:22.678Z,-20.08
2022-11-28T11:05:29.911Z,-20.19
2022-11-28T11:08:37.279Z,-20.18
2022-11-28T11:11:49.664Z,-20.09
2022-11-28T11:14:53.324Z,-19.98
2022-11-28T11:17:57.215Z,-19.90
2022-11-28T11:21:14.854Z,-19.86
2022-11-28T11:24:19.413Z,-19.76
2022-11-28T11:27:24.034Z,-19.84
2022-11-28T11:30:34.598Z,-19.87
2022-11-28T11:33:38.971Z,-19.87
2022-11-28T11:36:43.110Z,-19.80
2022-11-28T11:39:51.906Z,-19.69
2022-11-28T11:43:01.843Z,-19.62
2022-11-28T11:46:13.865Z,-19.55
2022-11-28T11:49:29.415Z,-19.53
2022-11-28T11:52:32.836Z,-19.58
2022-11-28T11:55:55.212Z,-19.58
2022-11-28T11:58:59.853Z,-19.49
2022-11-28T12:02:13.692Z,-19.35
2022-11-28T12:05:20.293Z,-19.36
2022-11-28T12:08:32.474Z,-19.45
2022-11-28T12:11:51.388Z,-19.55
2022-11-28T12:14:55.754Z,-19.76
2022-11-28T12:18:20.470Z,-19.93
2022-11-28T12:22:02.728Z,-19.97
2022-11-28T12:25:43.272Z,-20.04
2022-11-28T12:32:48.374Z,-20.07
2022-11-28T12:36:03.771Z,-19.98
2022-11-28T12:39:14.031Z,-19.97
2022-11-28T12:42:43.110Z,-20.09
2022-11-28T12:45:56.497Z,-20.07
2022-11-28T12:49:35.752Z,-20.17
2022-11-28T12:53:00.472Z,-20.21
2022-11-28T12:56:38.106Z,-20.18
2022-11-28T13:00:06.724Z,-20.24
2022-11-28T13:03:42.076Z,-20.29
2022-11-28T13:10:23.905Z,-20.39
2022-11-28T13:13:33.017Z,-20.46
2022-11-28T13:16:50.872Z,-20.64
2022-11-28T13:20:18.960Z,-20.66
2022-11-28T13:23:32.288Z,-20.75
2022-11-28T13:26:52.819Z,-20.80
2022-11-28T13:30:27.596Z,-20.81
2022-11-28T13:33:55.881Z,-20.68
2022-11-28T13:40:41.281Z,-20.77
2022-11-28T13:44:29.517Z,-20.73
2022-11-28T13:47:37.825Z,-20.81
2022-11-28T13:50:42.332Z,-20.88
2022-11-28T13:53:47.157Z,-20.92
2022-11-28T13:57:06.302Z,-20.83
2022-11-28T14:00:24.323Z,-20.84
2022-11-28T14:03:28.525Z,-20.89
2022-11-28T14:06:59.825Z,-20.95
2022-11-28T14:10:28.138Z,-20.88
2022-11-28T14:14:13.910Z,-20.88
2022-11-28T14:17:26.482Z,-20.98
2022-11-28T14:20:56.119Z,-21.09
2022-11-28T14:24:05.868Z,-21.16
2022-11-28T14:27:21.679Z,-21.29
2022-11-28T14:30:35.181Z,-21.39
2022-11-28T14:33:43.005Z,-21.39
2022-11-28T14:36:47.207Z,-21.49
2022-11-28T14:39:53.508Z,-21.57
2022-11-28T14:43:29.395Z,-21.68
2022-11-28T14:46:33.639Z,-21.77
2022-11-28T14:49:38.353Z,-21.74
2022-11-28T14:52:50.646Z,-21.88
2022-11-28T14:55:54.721Z,-21.88
2022-11-28T14:59:02.684Z,-21.91
2022-11-28T15:02:12.829Z,-21.95
2022-11-28T15:05:46.999Z,-22.05
2022-11-28T15:09:23.368Z,-22.08
2022-11-28T15:13:01.359Z,-22.16
2022-11-28T15:16:08.263Z,-22.16
2022-11-28T15:19:34.342Z,-22.25
2022-11-28T15:22:43.688Z,-22.29
2022-11-28T15:25:53.757Z,-22.29
2022-11-28T15:29:30.791Z,-22.32
2022-11-28T15:32:35.375Z,-22.33
2022-11-28T15:35:39.667Z,-22.32
2022-11-28T15:38:44.041Z,-22.33
2022-11-28T15:41:49.404Z,-22.36
2022-11-28T15:45:01.042Z,-22.43
2022-11-28T15:48:07.896Z,-22.51
2022-11-28T15:51:30.689Z,-22.60
2022-11-28T15:54:41.629Z,-22.57
2022-11-28T15:57:45.646Z,-22.58
2022-11-28T16:00:57.915Z,-22.54
2022-11-28T16:04:14.564Z,-22.56
2022-11-28T16:07:18.534Z,-22.54
2022-11-28T16:10:37.752Z,-22.51
2022-11-28T16:13:41.367Z,-22.41
2022-11-28T16:16:45.240Z,-22.36
2022-11-28T16:19:52.048Z,-22.43
2022-11-28T16:23:10.210Z,-22.41
2022-11-28T16:26:22.338Z,-22.39
2022-11-28T16:29:37.201Z,-22.47
2022-11-28T16:32:41.225Z,-22.47
2022-11-28T16:35:45.138Z,-22.57
2022-11-28T16:38:50.151Z,-22.63
2022-11-28T16:42:07.926Z,-22.56
2022-11-28T16:45:18.224Z,-22.63
2022-11-28T16:48:22.277Z,-22.69
2022-11-28T16:51:36.971Z,-22.69
2022-11-28T16:54:40.345Z,-22.71
2022-11-28T16:57:48.518Z,-22.74
2022-11-28T17:01:00.948Z,-22.74
2022-11-28T17:04:05.187Z,-22.71
2022-11-28T17:07:12.148Z,-22.72
2022-11-28T17:10:15.859Z,-22.74
2022-11-28T17:13:19.085Z,-22.71
2022-11-28T17:16:24.787Z,-22.68
2022-11-28T17:19:28.501Z,-22.67
2022-11-28T17:22:41.222Z,-22.68
2022-11-28T17:25:45.158Z,-22.67
2022-11-28T17:28:49.196Z,-22.67
2022-11-28T17:31:55.672Z,-22.58
2022-11-28T17:35:04.256Z,-22.60
2022-11-28T17:38:07.567Z,-22.54
2022-11-28T17:41:14.890Z,-22.53
2022-11-28T17:44:25.089Z,-22.47
2022-11-28T17:47:29.672Z,-22.41
2022-11-28T17:50:33.593Z,-22.41
2022-11-28T17:53:38.073Z,-22.44
2022-11-28T17:56:41.713Z,-22.40
2022-11-28T17:59:45.642Z,-22.44
2022-11-28T18:02:49.489Z,-22.46
2022-11-28T18:05:53.761Z,-22.50
2022-11-28T18:09:00.215Z,-22.46
2022-11-28T18:12:04.676Z,-22.48
2022-11-28T18:15:10.756Z,-22.56
2022-11-28T18:18:14.352Z,-22.51
2022-11-28T18:21:17.719Z,-22.48
2022-11-28T18:24:21.553Z,-22.46
2022-11-28T18:27:24.770Z,-22.47
2022-11-28T18:30:28.759Z,-22.53
2022-11-28T18:33:31.808Z,-22.53
2022-11-28T18:36:37.769Z,-22.57
2022-11-28T18:39:42.361Z,-22.64
2022-11-28T18:42:46.600Z,-22.71
2022-11-28T18:45:51.001Z,-22.65
2022-11-28T18:48:55.117Z,-22.60
2022-11-28T18:52:00.206Z,-22.61
2022-11-28T18:55:05.120Z,-22.58
2022-11-28T18:58:08.714Z,-22.65
2022-11-28T19:01:38.081Z,-22.69
2022-11-28T19:04:42.126Z,-22.74
2022-11-28T19:07:45.925Z,-22.72
2022-11-28T19:10:50.131Z,-22.75
2022-11-28T19:13:54.010Z,-22.78
2022-11-28T19:16:58.789Z,-22.79
2022-11-28T19:20:01.825Z,-22.88
2022-11-28T19:23:07.390Z,-22.94
2022-11-28T19:26:13.610Z,-23.06
2022-11-28T19:29:17.051Z,-23.15
2022-11-28T19:32:20.181Z,-23.19
2022-11-28T19:35:24.085Z,-23.23
2022-11-28T19:38:27.739Z,-23.31
2022-11-28T19:41:31.548Z,-23.43
2022-11-28T19:44:34.640Z,-23.45
2022-11-28T19:47:39.348Z,-23.50
2022-11-28T19:50:49.758Z,-23.50
2022-11-28T19:53:54.608Z,-23.48
2022-11-28T19:57:00.359Z,-23.62
2022-11-28T20:00:09.266Z,-23.62
2022-11-28T20:03:17.000Z,-23.64
2022-11-28T20:06:31.679Z,-23.69
2022-11-28T20:09:35.509Z,-23.72
2022-11-28T20:12:39.248Z,-23.71
2022-11-28T20:15:43.136Z,-23.69
2022-11-28T20:18:47.455Z,-23.65
2022-11-28T20:21:51.160Z,-23.61
2022-11-28T20:24:56.060Z,-23.57
2022-11-28T20:28:00.064Z,-23.54
2022-11-28T20:31:04.471Z,-23.53
2022-11-28T20:34:08.985Z,-23.51
2022-11-28T20:37:12.168Z,-23.57
2022-11-28T20:40:15.490Z,-23.53
2022-11-28T20:43:19.552Z,-23.54
2022-11-28T20:46:24.729Z,-23.54
2022-11-28T20:49:28.919Z,-23.54
2022-11-28T20:52:32.394Z,-23.55
2022-11-28T20:55:36.210Z,-23.57
2022-11-28T20:58:39.787Z,-23.61
2022-11-28T21:01:42.863Z,-23.65
2022-11-28T21:04:46.711Z,-23.65
2022-11-28T21:07:50.167Z,-23.71
2022-11-28T21:10:53.127Z,-23.74
2022-11-28T21:13:57.310Z,-23.75
2022-11-28T21:17:00.913Z,-23.82
2022-11-28T21:20:04.822Z,-23.92
2022-11-28T21:23:08.581Z,-23.89
2022-11-28T21:26:15.966Z,-23.83
2022-11-28T21:29:19.675Z,-23.85
2022-11-28T21:32:22.654Z,-23.86
2022-11-28T21:35:27.024Z,-23.88
2022-11-28T21:38:31.320Z,-23.85
2022-11-28T21:41:35.299Z,-23.83
2022-11-28T21:44:40.019Z,-23.89
2022-11-28T21:47:44.272Z,-23.86
2022-11-28T21:50:49.913Z,-23.86
2022-11-28T21:53:54.298Z,-23.88
2022-11-28T21:56:57.390Z,-23.81
2022-11-28T22:00:00.453Z,-23.78
2022-11-28T22:03:12.511Z,-23.79
2022-11-28T22:06:23.359Z,-23.81
2022-11-28T22:09:26.988Z,-23.79
2022-11-28T22:12:30.254Z,-23.78
2022-11-28T22:15:33.385Z,-23.78
2022-11-28T22:18:37.304Z,-23.85
2022-11-28T22:21:56.289Z,-23.83
2022-11-28T22:25:00.994Z,-23.89
2022-11-28T22:28:04.771Z,-23.93
2022-11-28T22:31:19.000Z,-23.95
2022-11-28T22:34:22.186Z,-23.95
2022-11-28T22:37:25.701Z,-23.99
2022-11-28T22:40:28.737Z,-24.04
2022-11-28T22:43:32.600Z,-24.06
2022-11-28T22:46:36.166Z,-24.03
2022-11-28T22:49:40.314Z,-24.04
2022-11-28T22:52:44.764Z,-24.04
2022-11-28T22:55:49.048Z,-24.07
2022-11-28T22:58:53.353Z,-23.99
2022-11-28T23:02:06.642Z,-23.97
2022-11-28T23:05:10.816Z,-23.93
2022-11-28T23:08:14.710Z,-23.92
2022-11-28T23:11:29.917Z,-23.82
2022-11-28T23:14:34.398Z,-23.69
2022-11-28T23:17:37.791Z,-23.66
2022-11-28T23:20:41.252Z,-23.72
2022-11-28T23:23:46.736Z,-23.81
2022-11-28T23:26:51.631Z,-23.85
2022-11-28T23:29:55.370Z,-23.86
2022-11-28T23:32:59.654Z,-23.86
2022-11-28T23:36:24.672Z,-23.83
2022-11-28T23:39:29.200Z,-23.78
2022-11-28T23:42:39.976Z,-23.71
2022-11-28T23:45:43.708Z,-23.66
2022-11-28T23:48:48.264Z,-23.66
2022-11-28T23:51:51.978Z,-23.66
2022-11-28T23:54:55.303Z,-23.71
2022-11-28T23:57:58.716Z,-23.74
